Time;durP1;ratioP1;P1;durP2;ratioP2;P2;SDS_P1;SDS_P2;PMS_P1;PMS_P2;Temp;Humidity;BMP_temperature;BMP_pressure;BME280_temperature;BME280_humidity;BME280_pressure;Samples;Min_cycle;Max_cycle;Signal;HPM_P1;HPM_P2
2020/12/23 00:02:08;;;;;;;1.13;1.03;;;;;;;6.73;100.00;100754.84;5006118;28;20204;-78
2020/12/23 00:04:35;;;;;;;1.40;1.30;;;;;;;6.70;100.00;100748.84;5009286;28;20577;-79
2020/12/23 00:07:00;;;;;;;1.60;1.43;;;;;;;6.66;100.00;100740.22;5006368;28;20564;-78
2020/12/23 00:09:26;;;;;;;2.40;1.23;;;;;;;6.64;100.00;100754.94;5011800;28;20230;-80
2020/12/23 00:11:54;;;;;;;2.67;1.97;;;;;;;6.62;100.00;100746.31;5005263;28;20678;-78
2020/12/23 00:14:20;;;;;;;6.77;4.37;;;;;;;6.62;100.00;100744.56;5007954;28;20223;-80
2020/12/23 00:16:46;;;;;;;5.43;3.10;;;;;;;6.61;100.00;100757.53;5006561;28;20569;-79
2020/12/23 00:19:12;;;;;;;4.13;2.60;;;;;;;6.60;100.00;100759.28;5006438;28;20217;-80
2020/12/23 00:21:38;;;;;;;3.37;2.30;;;;;;;6.60;100.00;100774.81;5017772;28;20638;-79
2020/12/23 00:24:03;;;;;;;3.50;2.30;;;;;;;6.59;100.00;100762.72;5005778;28;20622;-79
2020/12/23 00:26:29;;;;;;;3.07;1.80;;;;;;;6.58;100.00;100783.50;5011301;28;20204;-78
2020/12/23 00:28:56;;;;;;;1.87;1.77;;;;;;;6.57;100.00;100782.59;5005267;28;20217;-78
2020/12/23 00:31:22;;;;;;;2.60;1.70;;;;;;;6.57;100.00;100777.44;5008172;28;20218;-79
2020/12/23 00:33:48;;;;;;;2.23;1.70;;;;;;;6.59;100.00;100780.00;5004457;28;20220;-79
2020/12/23 00:36:14;;;;;;;2.00;1.57;;;;;;;6.58;100.00;100775.72;5004081;28;20276;-78
2020/12/23 00:38:40;;;;;;;2.27;1.60;;;;;;;6.57;100.00;100774.00;5005164;28;20232;-78
2020/12/23 00:41:09;;;;;;;1.73;1.43;;;;;;;6.57;100.00;100774.00;5006613;28;20685;-78
2020/12/23 00:43:35;;;;;;;1.60;1.30;;;;;;;6.57;100.00;100779.16;5006852;28;20209;-79
2020/12/23 00:46:02;;;;;;;1.50;1.40;;;;;;;6.56;100.00;100786.09;5007088;28;20613;-80
2020/12/23 00:48:28;;;;;;;1.60;1.43;;;;;;;6.57;100.00;100779.16;5007373;28;20247;-78
2020/12/23 00:50:54;;;;;;;2.80;1.60;;;;;;;6.56;100.00;100783.50;5006870;28;20259;-80
2020/12/23 00:53:20;;;;;;;1.90;1.70;;;;;;;6.57;100.00;100792.13;5012240;28;20716;-79
2020/12/23 00:55:46;;;;;;;1.97;1.70;;;;;;;6.57;100.00;100789.53;4989829;28;20744;-79
2020/12/23 00:58:13;;;;;;;2.20;1.87;;;;;;;6.58;100.00;100786.94;5013098;28;20197;-79
2020/12/23 01:00:39;;;;;;;2.33;2.13;;;;;;;6.59;100.00;100787.78;5006813;28;20217;-79
2020/12/23 01:03:06;;;;;;;3.53;2.37;;;;;;;6.59;100.00;100790.38;5010264;28;20680;-79
2020/12/23 01:05:32;;;;;;;3.13;2.30;;;;;;;6.60;100.00;100800.72;5005657;28;20200;-80
2020/12/23 01:07:57;;;;;;;3.40;2.53;;;;;;;6.61;100.00;100799.00;5007659;28;20198;-79
2020/12/23 01:10:23;;;;;;;3.43;2.33;;;;;;;6.63;100.00;100799.84;5006790;28;21135;-79
2020/12/23 01:12:49;;;;;;;5.37;3.00;;;;;;;6.63;100.00;100805.91;5006857;28;20896;-79
2020/12/23 01:15:15;;;;;;;3.67;2.23;;;;;;;6.64;100.00;100806.75;5013854;28;20224;-80
2020/12/23 01:17:41;;;;;;;3.07;2.17;;;;;;;6.64;100.00;100804.16;4987190;28;20310;-80
2020/12/23 01:20:07;;;;;;;6.93;2.50;;;;;;;6.65;100.00;100808.47;5009195;28;20235;-80
2020/12/23 01:22:35;;;;;;;4.10;2.47;;;;;;;6.63;100.00;100805.91;5005653;28;20200;-80
2020/12/23 01:25:00;;;;;;;4.37;2.87;;;;;;;6.63;100.00;100803.31;5009609;28;20201;-79
2020/12/23 01:27:28;;;;;;;3.60;2.60;;;;;;;6.64;100.00;100796.38;5004645;28;20240;-79
2020/12/23 01:29:54;;;;;;;3.53;2.50;;;;;;;6.63;100.00;100786.88;5004095;28;20619;-80
2020/12/23 01:32:19;;;;;;;5.17;2.73;;;;;;;6.62;100.00;100774.81;5007678;28;20209;-79
2020/12/23 01:34:45;;;;;;;3.70;2.67;;;;;;;6.61;100.00;100784.34;5007401;28;20211;-79
2020/12/23 01:37:12;;;;;;;3.00;2.10;;;;;;;6.58;100.00;100789.53;5006082;28;20665;-79
2020/12/23 01:39:38;;;;;;;3.13;2.53;;;;;;;6.56;100.00;100782.63;5004845;28;20254;-79
2020/12/23 01:42:04;;;;;;;4.07;2.77;;;;;;;6.55;100.00;100786.09;5007134;28;20193;-81
2020/12/23 01:44:29;;;;;;;3.87;2.73;;;;;;;6.55;100.00;100780.91;5001860;28;20208;-79
2020/12/23 01:46:55;;;;;;;5.27;2.63;;;;;;;6.55;100.00;100781.78;5008912;28;20201;-80
2020/12/23 01:49:21;;;;;;;3.97;2.90;;;;;;;6.55;100.00;100773.16;5006447;28;20248;-79
2020/12/23 01:51:47;;;;;;;3.80;2.87;;;;;;;6.55;100.00;100773.16;5010399;28;20296;-79
2020/12/23 01:54:14;;;;;;;4.40;2.60;;;;;;;6.55;100.00;100780.91;5004522;28;20693;-80
2020/12/23 01:56:42;;;;;;;3.23;2.50;;;;;;;6.54;100.00;100782.63;5006505;28;20201;-79
2020/12/23 01:59:08;;;;;;;3.23;2.53;;;;;;;6.56;100.00;100795.56;5007672;28;20578;-79
2020/12/23 02:01:38;;;;;;;4.80;2.80;;;;;;;6.55;100.00;100788.69;5007143;28;20276;-79
2020/12/23 02:04:04;;;;;;;3.23;2.70;;;;;;;6.56;100.00;100786.09;5007437;28;20205;-80
2020/12/23 02:06:32;;;;;;;3.90;2.70;;;;;;;6.55;100.00;100786.94;5006992;28;20291;-81
2020/12/23 02:09:01;;;;;;;3.57;2.40;;;;;;;6.55;100.00;100791.28;5004883;28;20236;-78
2020/12/23 02:11:29;;;;;;;5.73;2.80;;;;;;;6.56;100.00;100796.44;5006537;28;20200;-79
2020/12/23 02:13:55;;;;;;;4.13;3.07;;;;;;;6.56;100.00;100793.88;5007500;28;20229;-80
2020/12/23 02:16:20;;;;;;;3.77;3.10;;;;;;;6.57;100.00;100792.13;5005572;28;20196;-79
2020/12/23 02:18:46;;;;;;;4.37;3.20;;;;;;;6.58;100.00;100796.44;5007558;28;20208;-80
2020/12/23 02:21:13;;;;;;;5.20;3.07;;;;;;;6.58;100.00;100797.28;5007493;28;20205;-79
2020/12/23 02:23:40;;;;;;;6.03;3.43;;;;;;;6.59;100.00;100798.16;4981972;28;20618;-79
2020/12/23 02:26:06;;;;;;;4.60;3.07;;;;;;;6.59;100.00;100790.38;5006112;28;20205;-79
2020/12/23 02:28:32;;;;;;;4.47;3.00;;;;;;;6.59;100.00;100799.00;5006871;28;20200;-79
2020/12/23 02:30:59;;;;;;;4.10;2.97;;;;;;;6.58;100.00;100796.44;5001367;28;20473;-79
2020/12/23 02:33:25;;;;;;;4.23;3.00;;;;;;;6.57;100.00;100800.75;5006965;28;20204;-81
2020/12/23 02:35:51;;;;;;;4.47;3.10;;;;;;;6.57;100.00;100799.91;5006780;28;20275;-79
2020/12/23 02:38:17;;;;;;;5.30;3.67;;;;;;;6.56;100.00;100796.44;5004941;28;20200;-79
2020/12/23 02:40:43;;;;;;;5.90;3.43;;;;;;;6.57;100.00;100786.94;5012564;28;20307;-80
2020/12/23 02:43:09;;;;;;;4.17;3.47;;;;;;;6.55;100.00;100781.78;5003860;28;20197;-80
2020/12/23 02:45:35;;;;;;;8.23;3.47;;;;;;;6.54;100.00;100774.84;5011887;28;20661;-79
2020/12/23 02:48:01;;;;;;;4.50;3.30;;;;;;;6.54;100.00;100774.00;5003689;28;20207;-80
2020/12/23 02:50:27;;;;;;;4.90;3.33;;;;;;;6.51;100.00;100774.91;5017065;28;20211;-79
2020/12/23 02:52:53;;;;;;;4.20;3.10;;;;;;;6.50;100.00;100777.50;5003351;28;20209;-79
2020/12/23 02:55:19;;;;;;;4.40;3.10;;;;;;;6.48;100.00;100771.47;5008437;28;20256;-79
2020/12/23 02:57:46;;;;;;;4.23;3.30;;;;;;;6.47;100.00;100769.75;5006933;28;20205;-80
2020/12/23 03:00:11;;;;;;;5.17;3.33;;;;;;;6.46;100.00;100761.13;5008343;28;20580;-79
2020/12/23 03:02:37;;;;;;;4.40;3.10;;;;;;;6.44;100.00;100761.13;5007386;28;20224;-79
2020/12/23 03:05:04;;;;;;;6.37;3.23;;;;;;;6.44;100.00;100770.63;5007092;28;20212;-79
2020/12/23 03:07:29;;;;;;;5.10;3.10;;;;;;;6.42;100.00;100768.06;5003530;28;20200;-79
2020/12/23 03:09:56;;;;;;;4.10;2.97;;;;;;;6.40;100.00;100763.72;5004914;28;20221;-79
2020/12/23 03:12:21;;;;;;;5.13;3.43;;;;;;;6.38;100.00;100768.91;5010266;28;20196;-79
2020/12/23 03:14:48;;;;;;;6.50;3.20;;;;;;;6.36;100.00;100764.63;5004151;28;20245;-80
2020/12/23 03:17:14;;;;;;;3.87;3.20;;;;;;;6.37;100.00;100767.22;5009269;28;20207;-79
2020/12/23 03:19:40;;;;;;;5.53;3.17;;;;;;;6.35;100.00;100774.16;5004430;28;20628;-80
2020/12/23 03:22:06;;;;;;;6.90;3.17;;;;;;;6.33;100.00;100775.88;5005924;28;20204;-78
2020/12/23 03:24:31;;;;;;;5.83;3.13;;;;;;;6.33;100.00;100781.06;5007102;28;20192;-79
2020/12/23 03:26:57;;;;;;;4.60;3.03;;;;;;;6.32;100.00;100779.34;5005078;28;20201;-79
2020/12/23 03:29:23;;;;;;;4.60;3.50;;;;;;;6.33;100.00;100780.19;5012107;28;20828;-79
2020/12/23 03:31:50;;;;;;;5.50;3.70;;;;;;;6.32;100.00;100768.97;5008130;28;20200;-79
2020/12/23 03:34:16;;;;;;;5.43;3.67;;;;;;;6.33;100.00;100773.28;5009086;28;20220;-78
2020/12/23 03:36:42;;;;;;;5.33;3.80;;;;;;;6.35;100.00;100775.84;5006240;28;20204;-79
2020/12/23 03:39:07;;;;;;;5.93;3.80;;;;;;;6.34;100.00;100771.56;5011528;28;20701;-79
2020/12/23 03:41:34;;;;;;;5.53;4.27;;;;;;;6.34;100.00;100761.19;5009963;28;20687;-80
2020/12/23 03:44:00;;;;;;;5.90;4.03;;;;;;;6.32;100.00;100766.38;5009953;28;20669;-79
2020/12/23 03:46:26;;;;;;;4.33;3.50;;;;;;;6.30;100.00;100765.53;5009238;28;20536;-79
2020/12/23 03:48:52;;;;;;;5.93;3.67;;;;;;;6.30;100.00;100762.94;5010741;28;20196;-80
2020/12/23 03:51:18;;;;;;;6.50;3.83;;;;;;;6.29;100.00;100760.38;5008699;28;20239;-79
2020/12/23 03:53:44;;;;;;;5.77;4.27;;;;;;;6.28;100.00;100771.56;5011639;28;20196;-79
2020/12/23 03:56:10;;;;;;;5.77;3.73;;;;;;;6.28;100.00;100767.28;5011643;28;20209;-80
2020/12/23 03:58:36;;;;;;;5.57;4.07;;;;;;;6.27;100.00;100760.38;5008717;28;20228;-79
2020/12/23 04:01:02;;;;;;;6.50;4.23;;;;;;;6.27;100.00;100769.88;5010786;28;20248;-78
2020/12/23 04:03:27;;;;;;;6.27;3.37;;;;;;;6.28;100.00;100777.66;5009581;28;20656;-79
2020/12/23 04:05:54;;;;;;;5.77;4.17;;;;;;;6.27;100.00;100775.91;5014721;28;20197;-79
2020/12/23 04:08:20;;;;;;;7.00;3.90;;;;;;;6.28;100.00;100777.66;5007279;28;20209;-79
2020/12/23 04:10:46;;;;;;;4.70;3.47;;;;;;;6.26;100.00;100781.94;4996112;28;20632;-78
2020/12/23 04:13:12;;;;;;;5.67;3.60;;;;;;;6.25;100.00;100775.91;5009033;28;20727;-78
2020/12/23 04:15:37;;;;;;;5.43;3.63;;;;;;;6.25;100.00;100769.88;5012170;28;20247;-79
2020/12/23 04:18:03;;;;;;;6.37;3.60;;;;;;;6.25;100.00;100756.94;5010265;28;20288;-79
2020/12/23 04:20:29;;;;;;;7.83;3.93;;;;;;;6.25;100.00;100760.38;5013906;28;20703;-80
2020/12/23 04:22:56;;;;;;;5.33;3.60;;;;;;;6.25;100.00;100754.34;4995326;28;20300;-80
2020/12/23 04:25:22;;;;;;;4.70;3.37;;;;;;;6.24;100.00;100758.69;5009403;28;20561;-79
2020/12/23 04:27:47;;;;;;;6.17;3.53;;;;;;;6.24;100.00;100760.38;5010343;28;20193;-80
2020/12/23 04:30:13;;;;;;;5.60;3.63;;;;;;;6.23;100.00;100763.84;5008927;28;20248;-80
2020/12/23 04:32:39;;;;;;;6.60;3.60;;;;;;;6.23;100.00;100764.72;5013368;28;20648;-79
2020/12/23 04:35:05;;;;;;;5.23;3.67;;;;;;;6.22;100.00;100768.16;4991785;28;20759;-79
2020/12/23 04:37:32;;;;;;;5.70;3.30;;;;;;;6.21;100.00;100763.88;5014218;28;20198;-79
2020/12/23 04:39:59;;;;;;;7.77;5.13;;;;;;;6.21;100.00;100770.78;5007572;28;20279;-79
2020/12/23 04:42:26;;;;;;;10.80;5.83;;;;;;;6.21;100.00;100773.38;5008937;28;20204;-79
2020/12/23 04:44:52;;;;;;;12.47;7.87;;;;;;;6.20;100.00;100775.06;5009451;28;20609;-79
2020/12/23 04:47:24;;;;;;;10.90;7.03;;;;;;;6.21;100.00;100769.03;5008728;28;20193;-78
2020/12/23 04:49:53;;;;;;;11.10;6.20;;;;;;;6.21;100.00;100775.97;4993392;28;20233;-79
2020/12/23 04:52:20;;;;;;;6.67;4.53;;;;;;;6.22;100.00;100778.50;5009592;28;20665;-80
2020/12/23 04:54:46;;;;;;;7.10;4.13;;;;;;;6.25;100.00;100775.91;5013501;28;20219;-79
2020/12/23 04:57:17;;;;;;;7.03;4.23;;;;;;;6.26;100.00;100774.19;5006172;28;20901;-79
2020/12/23 04:59:44;;;;;;;6.90;4.30;;;;;;;6.24;100.00;100769.03;5015004;28;20219;-78
2020/12/23 05:02:09;;;;;;;16.53;8.00;;;;;;;6.23;100.00;100767.31;5005295;28;20205;-80
2020/12/23 05:04:35;;;;;;;15.93;7.87;;;;;;;6.23;100.00;100766.44;5014213;28;20204;-79
2020/12/23 05:07:04;;;;;;;19.77;9.60;;;;;;;6.21;100.00;100768.19;5007915;28;20205;-79
2020/12/23 05:09:30;;;;;;;34.97;13.63;;;;;;;6.21;100.00;100768.19;5007619;28;20220;-79
2020/12/23 05:11:57;;;;;;;22.03;9.77;;;;;;;6.20;100.00;100769.03;5004919;28;20500;-79
2020/12/23 05:14:25;;;;;;;18.97;9.80;;;;;;;6.20;100.00;100771.63;5010781;28;20347;-79
2020/12/23 05:16:52;;;;;;;14.80;7.20;;;;;;;6.21;100.00;100766.47;5006646;28;20204;-80
2020/12/23 05:19:18;;;;;;;10.67;5.37;;;;;;;6.21;100.00;100766.47;5009069;28;20229;-79
2020/12/23 05:21:45;;;;;;;9.60;5.27;;;;;;;6.20;100.00;100764.72;4997519;28;20222;-79
2020/12/23 05:24:12;;;;;;;7.57;5.17;;;;;;;6.19;100.00;100760.44;5005752;28;20239;-79
2020/12/23 05:26:41;;;;;;;11.43;4.90;;;;;;;6.17;100.00;100754.38;5000148;28;20274;-79
2020/12/23 05:29:06;;;;;;;9.30;5.60;;;;;;;6.15;100.00;100753.53;5006634;28;20580;-79
2020/12/23 05:31:35;;;;;;;12.47;6.30;;;;;;;6.13;100.00;100755.28;5008916;28;20418;-79
2020/12/23 05:34:04;;;;;;;13.17;7.03;;;;;;;6.11;100.00;100763.94;5005617;28;20216;-79
2020/12/23 05:36:31;;;;;;;11.80;7.17;;;;;;;6.10;100.00;100773.41;5011117;28;20204;-80
2020/12/23 05:38:58;;;;;;;12.13;6.57;;;;;;;6.09;100.00;100771.69;5003744;28;20696;-79
2020/12/23 05:41:24;;;;;;;11.73;6.07;;;;;;;6.13;100.00;100767.38;5011897;28;20208;-79
2020/12/23 05:43:50;;;;;;;10.03;5.70;;;;;;;6.13;100.00;100768.22;5008840;28;20739;-79
2020/12/23 05:46:16;;;;;;;11.47;6.53;;;;;;;6.14;100.00;100777.72;5007353;28;20197;-79
2020/12/23 05:48:43;;;;;;;13.30;6.20;;;;;;;6.15;100.00;100771.66;5008884;28;20235;-79
2020/12/23 05:51:12;;;;;;;13.37;7.00;;;;;;;6.16;100.00;100767.34;5006979;28;20600;-78
2020/12/23 05:53:39;;;;;;;9.27;5.53;;;;;;;6.16;100.00;100765.63;5013698;28;20283;-79
2020/12/23 05:56:07;;;;;;;8.87;5.70;;;;;;;6.16;100.00;100763.03;5007255;28;21329;-78
2020/12/23 05:58:35;;;;;;;10.93;4.47;;;;;;;6.15;100.00;100758.72;5009948;28;20287;-79
2020/12/23 06:01:04;;;;;;;6.63;3.70;;;;;;;6.14;100.00;100762.19;4988694;28;20225;-79
2020/12/23 06:04:02;;;;;;;6.37;4.47;;;;;;;6.14;100.00;100759.59;5013865;28;20208;-78
2020/12/23 06:06:29;;;;;;;5.93;4.30;;;;;;;6.13;100.00;100767.38;5002391;28;20213;-79
2020/12/23 06:08:57;;;;;;;9.73;4.70;;;;;;;6.13;100.00;100775.97;5009499;28;20205;-79
2020/12/23 06:11:37;;;;;;;7.50;4.50;;;;;;;6.13;100.00;100777.72;5003160;28;20682;-79
2020/12/23 06:14:09;;;;;;;8.37;3.93;;;;;;;6.13;100.00;100786.34;4993819;28;20223;-78
2020/12/23 06:16:36;;;;;;;8.43;3.87;;;;;;;6.13;100.00;100781.16;5001906;28;20525;-79
2020/12/23 06:19:04;;;;;;;6.40;3.63;;;;;;;6.13;100.00;100772.53;5012080;28;20306;-79
2020/12/23 06:21:31;;;;;;;10.23;4.33;;;;;;;6.14;100.00;100776.84;5003637;28;20215;-79
2020/12/23 06:24:02;;;;;;;7.43;4.93;;;;;;;6.13;100.00;100783.75;5002307;28;20208;-78
2020/12/23 06:26:30;;;;;;;8.20;5.37;;;;;;;6.13;100.00;100781.16;4992692;28;20209;-80
2020/12/23 06:28:58;;;;;;;8.43;5.00;;;;;;;6.12;100.00;100783.75;5005547;28;20199;-79
2020/12/23 06:31:27;;;;;;;14.93;5.10;;;;;;;6.07;100.00;100797.59;5003538;28;20283;-79
2020/12/23 06:33:53;;;;;;;9.60;4.63;;;;;;;6.05;100.00;100791.56;5004392;28;20589;-78
2020/12/23 06:36:19;;;;;;;9.37;4.70;;;;;;;5.99;100.00;100789.00;5008542;28;20227;-79
2020/12/23 06:38:45;;;;;;;7.70;4.20;;;;;;;5.97;100.00;100800.22;5004395;28;20624;-81
2020/12/23 06:41:22;;;;;;;7.07;4.23;;;;;;;5.95;100.00;100796.75;5009029;28;20204;-79
2020/12/23 06:43:55;;;;;;;8.87;4.40;;;;;;;5.92;100.00;100791.59;5005063;28;20366;-81
2020/12/23 06:46:21;;;;;;;6.13;4.10;;;;;;;5.91;100.00;100798.50;5007865;28;20204;-79
2020/12/23 06:48:47;;;;;;;9.27;4.17;;;;;;;5.87;100.00;100789.91;5005092;28;20703;-79
2020/12/23 06:51:40;;;;;;;9.97;4.70;;;;;;;5.88;100.00;100799.34;5013818;28;20648;-78
2020/12/23 06:54:07;;;;;;;7.07;4.10;;;;;;;5.85;100.00;100794.19;5001355;28;20695;-78
2020/12/23 06:56:45;;;;;;;9.00;4.40;;;;;;;5.85;100.00;100806.28;5009077;28;20243;-78
2020/12/23 06:59:45;;;;;;;9.67;4.00;;;;;;;5.83;100.00;100801.09;5006371;28;20262;-78
2020/12/23 07:02:11;;;;;;;9.53;5.27;;;;;;;5.84;100.00;100807.13;5003386;28;20728;-78
2020/12/23 07:04:47;;;;;;;19.17;14.03;;;;;;;5.83;100.00;100808.00;5005353;28;20687;-79
2020/12/23 07:07:28;;;;;;;17.07;9.80;;;;;;;5.83;100.00;100815.78;5005249;28;20208;-78
2020/12/23 07:09:55;;;;;;;7.80;4.67;;;;;;;5.82;100.00;100824.41;5003442;28;20228;-78
2020/12/23 07:12:25;;;;;;;16.67;6.60;;;;;;;5.80;100.00;100813.19;5007483;28;20696;-79
2020/12/23 07:15:08;;;;;;;14.53;6.03;;;;;;;5.81;100.00;100812.34;5008057;28;20228;-78
2020/12/23 07:17:35;;;;;;;11.87;6.57;;;;;;;5.79;100.00;100807.16;4987629;28;20200;-78
2020/12/23 07:20:04;;;;;;;13.40;5.93;;;;;;;5.79;100.00;100807.16;5004432;28;20235;-78
2020/12/23 07:22:30;;;;;;;8.83;5.10;;;;;;;5.79;100.00;100801.16;5002806;28;20192;-79
2020/12/23 07:24:58;;;;;;;11.97;5.77;;;;;;;5.78;100.00;100805.44;5006910;28;20267;-78
2020/12/23 07:27:26;;;;;;;12.63;6.30;;;;;;;5.78;100.00;100808.03;5004492;28;20209;-78
2020/12/23 07:29:55;;;;;;;9.20;5.23;;;;;;;5.79;100.00;100811.50;5005254;28;20233;-78
2020/12/23 07:32:23;;;;;;;9.97;6.17;;;;;;;5.80;100.00;100818.38;5003075;28;20207;-78
2020/12/23 07:34:50;;;;;;;10.67;5.43;;;;;;;5.78;100.00;100822.69;5008480;28;20267;-78
2020/12/23 07:37:16;;;;;;;10.70;5.93;;;;;;;5.79;100.00;100816.66;5002608;28;20274;-78
2020/12/23 07:39:43;;;;;;;11.03;5.70;;;;;;;5.77;100.00;100816.66;4998205;28;20619;-78
2020/12/23 07:42:10;;;;;;;8.73;4.80;;;;;;;5.76;100.00;100814.09;5006578;28;20216;-79
2020/12/23 07:44:36;;;;;;;10.07;5.10;;;;;;;5.75;100.00;100812.34;5010443;28;20230;-79
2020/12/23 07:47:04;;;;;;;12.80;5.70;;;;;;;5.75;100.00;100813.22;5004893;28;20336;-78
2020/12/23 07:49:29;;;;;;;12.53;4.93;;;;;;;5.75;100.00;100807.19;5008789;28;20318;-78
2020/12/23 07:51:56;;;;;;;8.80;4.70;;;;;;;5.74;100.00;100814.09;4992500;28;20220;-78
2020/12/23 07:54:22;;;;;;;24.87;11.20;;;;;;;5.77;100.00;100815.78;5002607;28;20213;-79
2020/12/23 07:56:48;;;;;;;18.73;8.73;;;;;;;5.78;100.00;100812.34;5005464;28;20212;-80
2020/12/23 07:59:23;;;;;;;12.97;5.40;;;;;;;5.77;100.00;100810.59;5001435;28;20275;-78
2020/12/23 08:01:50;;;;;;;15.50;9.40;;;;;;;5.77;100.00;100815.78;5009271;28;20207;-79
2020/12/23 08:04:16;;;;;;;14.37;6.93;;;;;;;5.77;100.00;100813.19;5004652;28;20303;-78
2020/12/23 08:06:42;;;;;;;13.20;5.70;;;;;;;5.80;100.00;100818.38;5005613;28;20200;-78
2020/12/23 08:09:11;;;;;;;10.90;5.03;;;;;;;5.77;100.00;100814.09;5005282;28;20590;-79
2020/12/23 08:11:38;;;;;;;9.23;4.43;;;;;;;5.76;100.00;100819.25;5006532;28;20681;-78
2020/12/23 08:14:04;;;;;;;11.80;4.30;;;;;;;5.76;100.00;100822.69;4991312;28;20208;-80
2020/12/23 08:16:31;;;;;;;11.40;5.43;;;;;;;5.74;100.00;100823.59;5009588;28;20226;-79
2020/12/23 08:18:58;;;;;;;11.50;6.13;;;;;;;5.76;100.00;100814.09;5012448;28;20216;-78
2020/12/23 08:21:26;;;;;;;16.40;6.33;;;;;;;5.75;100.00;100818.41;5009529;28;20201;-79
2020/12/23 08:23:53;;;;;;;12.00;5.63;;;;;;;5.77;100.00;100814.09;5019153;28;20204;-78
2020/12/23 08:26:20;;;;;;;14.30;6.17;;;;;;;5.75;100.00;100821.00;5007130;28;20196;-79
2020/12/23 08:28:47;;;;;;;12.50;4.50;;;;;;;5.72;100.00;100820.13;5006376;28;20197;-78
2020/12/23 08:31:17;;;;;;;6.27;4.37;;;;;;;5.65;100.00;100821.88;5005345;28;20224;-78
2020/12/23 08:33:45;;;;;;;10.00;4.40;;;;;;;5.62;100.00;100812.38;5012733;28;20602;-79
2020/12/23 08:36:11;;;;;;;8.37;3.77;;;;;;;5.60;100.00;100818.44;5006716;28;20729;-79
2020/12/23 08:38:38;;;;;;;11.70;4.60;;;;;;;5.61;100.00;100821.03;5012581;28;20224;-78
2020/12/23 08:41:11;;;;;;;6.83;3.93;;;;;;;5.59;100.00;100824.47;5004760;28;20483;-79
2020/12/23 08:43:44;;;;;;;14.47;4.73;;;;;;;5.57;100.00;100826.19;5009485;28;20197;-79
2020/12/23 08:46:09;;;;;;;9.17;3.83;;;;;;;5.57;100.00;100824.47;5009594;28;20314;-78
2020/12/23 08:48:45;;;;;;;8.47;3.50;;;;;;;5.55;100.00;100817.59;5010129;28;20901;-79
2020/12/23 08:51:12;;;;;;;9.20;4.40;;;;;;;5.52;100.00;100815.84;5008385;28;20262;-79
2020/12/23 08:53:38;;;;;;;11.10;4.00;;;;;;;5.55;100.00;100818.44;5009572;28;20209;-78
2020/12/23 08:56:21;;;;;;;7.20;3.90;;;;;;;5.55;100.00;100826.19;5011236;28;20216;-79
2020/12/23 08:58:49;;;;;;;10.97;3.53;;;;;;;5.59;100.00;100834.81;5004392;28;20201;-79
2020/12/23 09:01:22;;;;;;;8.03;3.77;;;;;;;5.58;100.00;100841.72;5009822;28;20224;-79
2020/12/23 09:03:56;;;;;;;9.93;4.13;;;;;;;5.57;100.00;100842.56;5007532;28;20357;-79
2020/12/23 09:06:23;;;;;;;12.10;4.03;;;;;;;5.57;100.00;100839.13;5030854;22;20276;-78
2020/12/23 09:08:49;;;;;;;10.47;3.73;;;;;;;5.52;100.00;100839.13;5061459;28;20318;-78
2020/12/23 09:11:15;;;;;;;7.17;3.03;;;;;;;5.56;100.00;100822.75;5064485;28;20210;-78
2020/12/23 09:13:41;;;;;;;9.53;3.77;;;;;;;5.54;100.00;100818.44;5052015;28;20203;-78
2020/12/23 09:16:06;;;;;;;9.00;3.47;;;;;;;5.57;100.00;100821.03;5047553;22;20222;-78
2020/12/23 09:18:32;;;;;;;10.00;3.63;;;;;;;5.56;100.00;100819.28;5044468;28;20206;-78
2020/12/23 09:20:59;;;;;;;9.30;3.60;;;;;;;5.57;100.00;100823.63;5046999;28;20199;-78
2020/12/23 09:23:27;;;;;;;10.73;3.60;;;;;;;5.58;100.00;100818.44;5027101;28;20218;-78
2020/12/23 09:25:53;;;;;;;12.27;3.80;;;;;;;5.60;100.00;100813.28;5039344;28;20222;-78
2020/12/23 09:28:20;;;;;;;13.83;4.07;;;;;;;5.60;100.00;100806.34;5040256;28;20195;-78
2020/12/23 09:30:47;;;;;;;15.93;4.03;;;;;;;5.59;100.00;100809.78;5026784;28;20708;-78
2020/12/23 09:33:15;;;;;;;9.10;4.03;;;;;;;5.61;100.00;100812.38;5032132;28;20572;-78
2020/12/23 09:35:43;;;;;;;11.97;3.87;;;;;;;5.61;100.00;100805.50;5028517;28;20215;-78
2020/12/23 09:38:12;;;;;;;11.23;3.83;;;;;;;5.63;100.00;100802.91;5044750;28;20203;-78
2020/12/23 09:40:40;;;;;;;9.23;4.10;;;;;;;5.61;100.00;100794.28;5047644;28;20576;-78
2020/12/23 09:43:16;;;;;;;9.47;3.87;;;;;;;5.60;100.00;100803.78;5022476;28;22839;-78
2020/12/23 09:45:42;;;;;;;12.73;4.20;;;;;;;5.64;100.00;100796.88;5029009;28;21567;-78
2020/12/23 09:48:08;;;;;;;8.73;3.87;;;;;;;5.66;100.00;100796.00;5036907;28;20253;-78
2020/12/23 09:50:35;;;;;;;13.83;4.97;;;;;;;5.69;100.00;100797.72;5045847;28;20234;-78
2020/12/23 09:53:01;;;;;;;13.97;4.40;;;;;;;5.73;100.00;100786.47;5044090;28;20199;-78
2020/12/23 09:55:27;;;;;;;10.23;4.57;;;;;;;5.75;100.00;100781.31;5044137;28;20695;-78
2020/12/23 09:57:54;;;;;;;12.50;4.80;;;;;;;5.74;100.00;100798.56;5049372;28;20200;-78
2020/12/23 10:00:20;;;;;;;13.70;4.33;;;;;;;5.74;100.00;100784.78;5048020;28;20226;-78
2020/12/23 10:02:46;;;;;;;12.07;5.20;;;;;;;5.73;100.00;100775.28;5045542;28;20195;-78
2020/12/23 10:05:12;;;;;;;13.67;4.60;;;;;;;5.70;100.00;100778.75;5042547;28;20241;-78
2020/12/23 10:07:38;;;;;;;9.73;4.90;;;;;;;5.69;100.00;100779.59;5043313;28;20287;-78
2020/12/23 10:10:05;;;;;;;10.83;4.77;;;;;;;5.69;100.00;100777.00;5047707;28;20219;-78
2020/12/23 10:12:31;;;;;;;13.27;5.20;;;;;;;5.68;100.00;100770.09;5046120;28;20234;-78
2020/12/23 10:14:58;;;;;;;15.27;5.30;;;;;;;5.69;100.00;100764.09;5051103;28;20219;-78
2020/12/23 10:17:24;;;;;;;11.47;4.90;;;;;;;5.69;100.00;100756.31;5042773;28;21145;-78
2020/12/23 10:19:49;;;;;;;10.27;5.30;;;;;;;5.68;100.00;100757.16;5045693;28;20473;-78
2020/12/23 10:22:15;;;;;;;16.43;5.50;;;;;;;5.68;100.00;100754.59;5025576;28;20264;-78
2020/12/23 10:24:41;;;;;;;16.90;5.40;;;;;;;5.64;100.00;100742.53;5036193;28;20196;-78
2020/12/23 10:27:07;;;;;;;12.50;5.67;;;;;;;5.68;100.00;100746.81;5045135;28;20209;-78
2020/12/23 10:29:33;;;;;;;15.80;6.57;;;;;;;5.72;100.00;100750.25;5037502;28;20210;-78
2020/12/23 10:32:00;;;;;;;19.07;6.27;;;;;;;5.78;100.00;100750.25;5045047;28;20207;-78
2020/12/23 10:34:27;;;;;;;16.93;6.73;;;;;;;5.85;100.00;100742.44;5050792;28;20214;-78
2020/12/23 10:36:53;;;;;;;12.23;5.93;;;;;;;5.93;100.00;100739.84;5046627;28;20214;-78
2020/12/23 10:39:21;;;;;;;13.57;5.80;;;;;;;5.98;100.00;100734.66;5044555;28;20227;-78
2020/12/23 10:41:51;;;;;;;13.60;6.40;;;;;;;6.09;100.00;100732.03;5056041;28;20277;-78
2020/12/23 10:44:16;;;;;;;15.17;7.03;;;;;;;6.11;100.00;100723.38;5043615;28;20223;-78
2020/12/23 10:46:42;;;;;;;16.33;7.37;;;;;;;6.16;100.00;100719.00;5046870;28;20660;-78
2020/12/23 10:49:09;;;;;;;16.57;7.73;;;;;;;6.22;100.00;100721.53;5043461;28;20227;-78
2020/12/23 10:51:35;;;;;;;16.97;7.60;;;;;;;6.24;100.00;100708.59;5035838;28;20202;-78
2020/12/23 10:54:01;;;;;;;15.63;8.10;;;;;;;6.30;100.00;100708.56;5031669;28;20206;-78
2020/12/23 10:56:26;;;;;;;14.23;7.60;;;;;;;6.31;100.00;100710.28;5048121;28;20227;-78
2020/12/23 10:58:52;;;;;;;16.13;7.23;;;;;;;6.33;100.00;100702.50;5042993;28;20223;-78
2020/12/23 11:01:19;;;;;;;19.47;7.87;;;;;;;6.39;100.00;100699.88;5043370;28;20257;-78
2020/12/23 11:03:45;;;;;;;18.97;7.60;;;;;;;6.43;100.00;100693.78;5043225;28;20680;-78
2020/12/23 11:06:14;;;;;;;16.00;7.23;;;;;;;6.48;100.00;100697.19;5046703;28;20199;-78
2020/12/23 11:08:40;;;;;;;15.20;7.67;;;;;;;6.44;100.00;100693.78;5050297;28;20230;-79
2020/12/23 11:11:06;;;;;;;17.00;7.07;;;;;;;6.49;100.00;100679.91;5028854;28;20203;-78
2020/12/23 11:13:32;;;;;;;15.47;7.30;;;;;;;6.51;100.00;100686.81;5051416;28;20205;-78
2020/12/23 11:15:58;;;;;;;18.40;7.87;;;;;;;6.56;100.00;100677.28;5045029;28;20585;-78
2020/12/23 11:18:24;;;;;;;13.63;7.50;;;;;;;6.57;100.00;100686.75;5042028;28;20202;-78
2020/12/23 11:20:50;;;;;;;18.13;7.80;;;;;;;6.62;100.00;100685.00;5037406;28;20298;-78
2020/12/23 11:23:24;;;;;;;18.17;8.20;;;;;;;6.65;100.00;100678.94;5045054;28;20530;-78